createdAt,value
2023-05-18T00:00:19.726Z,6.80
2023-05-18T00:02:48.734Z,7.00
2023-05-18T00:05:18.371Z,6.90
2023-05-18T00:07:45.627Z,6.90
2023-05-18T00:10:12.823Z,7.30
2023-05-18T00:12:39.931Z,6.90
2023-05-18T00:15:07.529Z,6.50
2023-05-18T00:17:34.635Z,6.80
2023-05-18T00:20:01.998Z,6.70
2023-05-18T00:22:30.303Z,6.70
2023-05-18T00:24:57.337Z,6.20
2023-05-18T00:27:25.469Z,6.50
2023-05-18T00:29:54.875Z,6.90
2023-05-18T00:32:22.185Z,6.60
2023-05-18T00:34:49.287Z,6.80
2023-05-18T00:37:16.430Z,7.50
2023-05-18T00:39:45.142Z,7.40
2023-05-18T00:42:12.356Z,7.90
2023-05-18T00:44:39.453Z,7.70
2023-05-18T00:47:07.089Z,8.00
2023-05-18T00:49:34.310Z,8.10
2023-05-18T00:52:01.548Z,7.50
2023-05-18T00:54:28.708Z,7.10
2023-05-18T00:56:57.110Z,7.30
2023-05-18T00:59:24.317Z,7.10
2023-05-18T01:01:53.098Z,7.10
2023-05-18T01:04:22.065Z,7.40
2023-05-18T01:06:53.323Z,7.30
2023-05-18T01:09:22.876Z,7.20
2023-05-18T01:11:54.711Z,7.40
2023-05-18T01:16:54.953Z,7.40
2023-05-18T01:19:36.236Z,7.40
2023-05-18T01:22:13.950Z,7.30
2023-05-18T01:24:48.691Z,6.80
2023-05-18T01:27:17.250Z,7.10
2023-05-18T01:29:47.737Z,7.80
2023-05-18T01:32:20.106Z,7.40
2023-05-18T01:34:47.529Z,7.30
2023-05-18T01:37:14.595Z,7.40
2023-05-18T01:39:43.467Z,7.10
2023-05-18T01:42:14.537Z,7.30
2023-05-18T01:44:52.404Z,7.90
2023-05-18T01:47:20.118Z,7.00
2023-05-18T01:49:57.103Z,7.50
2023-05-18T01:52:39.211Z,7.40
2023-05-18T01:55:07.010Z,6.80
2023-05-18T01:57:35.459Z,6.90
2023-05-18T02:00:06.031Z,7.10
2023-05-18T02:02:43.243Z,6.80
2023-05-18T02:05:13.642Z,7.40
2023-05-18T02:07:41.025Z,7.90
2023-05-18T02:10:09.434Z,7.70
2023-05-18T02:12:36.762Z,7.80
2023-05-18T02:15:07.373Z,7.50
2023-05-18T02:17:37.429Z,7.90
2023-05-18T02:20:08.385Z,7.70
2023-05-18T02:22:36.371Z,7.60
2023-05-18T02:25:08.272Z,7.40
2023-05-18T02:27:38.208Z,6.90
2023-05-18T02:30:12.491Z,7.10
2023-05-18T02:32:42.923Z,7.50
2023-05-18T02:35:15.967Z,7.00
2023-05-18T02:37:44.444Z,7.50
2023-05-18T02:40:12.935Z,7.70
2023-05-18T02:42:40.716Z,7.60
2023-05-18T02:45:08.661Z,7.30
2023-05-18T02:47:36.167Z,7.80
2023-05-18T02:50:03.723Z,7.50
2023-05-18T02:52:31.308Z,7.60
2023-05-18T02:55:00.365Z,7.40
2023-05-18T02:57:57.538Z,8.00
2023-05-18T03:00:40.415Z,7.30
2023-05-18T03:03:11.263Z,7.90
2023-05-18T03:05:38.753Z,7.50
2023-05-18T03:08:07.286Z,7.90
2023-05-18T03:10:34.763Z,6.80
2023-05-18T03:13:03.529Z,7.40
2023-05-18T03:15:32.149Z,8.20
2023-05-18T03:18:02.554Z,7.80
2023-05-18T03:20:32.075Z,8.00
2023-05-18T03:22:59.286Z,7.70
2023-05-18T03:25:26.928Z,7.80
2023-05-18T03:27:57.105Z,7.60
2023-05-18T03:30:25.657Z,7.80
2023-05-18T03:32:56.311Z,7.50
2023-05-18T03:35:23.518Z,7.40
2023-05-18T03:37:50.919Z,7.70
2023-05-18T03:40:19.264Z,7.20
2023-05-18T03:42:46.940Z,7.50
2023-05-18T03:45:14.131Z,7.40
2023-05-18T03:47:42.176Z,8.10
2023-05-18T03:50:09.903Z,7.70
2023-05-18T03:52:37.225Z,7.90
2023-05-18T03:55:06.930Z,8.10
2023-05-18T03:57:34.049Z,7.80
2023-05-18T04:00:02.016Z,8.10
2023-05-18T04:02:31.574Z,7.40
2023-05-18T04:04:59.391Z,7.60
2023-05-18T04:07:31.383Z,7.40
2023-05-18T04:09:58.941Z,7.00
2023-05-18T04:12:26.575Z,6.40
2023-05-18T04:14:54.738Z,5.90
2023-05-18T04:17:22.943Z,6.20
2023-05-18T04:19:50.341Z,6.50
2023-05-18T04:22:17.634Z,5.90
2023-05-18T04:24:48.229Z,6.00
2023-05-18T04:27:15.938Z,5.90
2023-05-18T04:29:44.321Z,6.30
2023-05-18T04:32:12.256Z,6.10
2023-05-18T04:34:39.494Z,4.90
2023-05-18T04:37:06.840Z,6.10
2023-05-18T04:39:35.124Z,6.00
2023-05-18T04:42:11.120Z,6.00
2023-05-18T04:44:39.413Z,5.70
2023-05-18T04:47:08.822Z,5.60
2023-05-18T04:49:39.869Z,6.00
2023-05-18T04:52:10.457Z,5.30
2023-05-18T04:54:38.318Z,4.90
2023-05-18T04:57:05.764Z,4.90
2023-05-18T04:59:37.379Z,5.20
2023-05-18T05:02:05.905Z,5.10
2023-05-18T05:04:33.614Z,4.70
2023-05-18T05:07:01.225Z,5.30
2023-05-18T05:09:28.491Z,5.20
2023-05-18T05:11:57.391Z,5.60
2023-05-18T05:14:28.272Z,4.80
2023-05-18T05:16:55.654Z,4.80
2023-05-18T05:19:23.035Z,4.80
2023-05-18T05:21:50.599Z,5.00
2023-05-18T05:24:19.594Z,5.20
2023-05-18T05:26:46.921Z,5.00
2023-05-18T05:29:14.193Z,4.70
2023-05-18T05:31:41.616Z,4.80
2023-05-18T05:34:08.959Z,4.50
2023-05-18T05:36:36.117Z,4.40
2023-05-18T05:39:03.501Z,4.50
2023-05-18T05:41:32.457Z,4.40
2023-05-18T05:44:00.236Z,4.30
2023-05-18T05:46:28.588Z,4.40
2023-05-18T05:48:57.478Z,4.00
2023-05-18T05:51:26.207Z,4.40
2023-05-18T05:53:53.547Z,4.10
2023-05-18T05:56:22.555Z,3.80
2023-05-18T05:58:49.552Z,3.60
2023-05-18T06:01:17.315Z,3.10
2023-05-18T06:03:45.609Z,3.20
2023-05-18T06:06:13.548Z,3.10
2023-05-18T06:08:41.036Z,2.90
2023-05-18T06:11:10.795Z,3.00
2023-05-18T06:13:39.791Z,3.20
2023-05-18T06:16:07.827Z,3.50
2023-05-18T06:18:36.140Z,2.80
2023-05-18T06:21:05.104Z,3.20
2023-05-18T06:23:32.954Z,2.60
2023-05-18T06:26:11.295Z,2.40
2023-05-18T06:28:57.472Z,3.00
2023-05-18T06:31:44.807Z,3.00
2023-05-18T06:34:18.411Z,2.70
2023-05-18T06:36:46.674Z,2.70
2023-05-18T06:39:16.389Z,2.80
2023-05-18T06:41:45.807Z,2.60
2023-05-18T06:44:20.185Z,2.50
2023-05-18T06:47:19.841Z,2.40
2023-05-18T06:49:47.818Z,2.20
2023-05-18T06:52:15.777Z,2.20
2023-05-18T06:54:44.222Z,2.30
2023-05-18T06:57:11.928Z,2.20
2023-05-18T06:59:39.740Z,2.00
2023-05-18T07:02:07.339Z,2.10
2023-05-18T07:04:34.780Z,2.20
2023-05-18T07:07:01.819Z,2.20
2023-05-18T07:09:28.960Z,2.20
2023-05-18T07:11:56.044Z,2.40
2023-05-18T07:14:24.165Z,2.40
2023-05-18T07:16:51.217Z,2.50
2023-05-18T07:19:18.270Z,2.60
2023-05-18T07:21:45.248Z,2.80
2023-05-18T07:24:12.339Z,2.50
2023-05-18T07:26:39.414Z,2.80
2023-05-18T07:29:06.529Z,2.80
2023-05-18T07:31:34.572Z,2.70
2023-05-18T07:34:01.673Z,3.20
2023-05-18T07:36:28.905Z,2.60
2023-05-18T07:38:56.969Z,3.00
2023-05-18T07:41:24.284Z,2.90
2023-05-18T07:43:52.810Z,2.70
2023-05-18T07:46:20.113Z,3.00
2023-05-18T07:48:47.225Z,3.10
2023-05-18T07:51:14.277Z,3.20
2023-05-18T07:53:41.755Z,4.40
2023-05-18T07:56:08.929Z,3.70
2023-05-18T07:58:36.462Z,3.10
2023-05-18T08:01:03.878Z,4.30
2023-05-18T08:03:31.006Z,3.90
2023-05-18T08:06:00.307Z,4.20
2023-05-18T08:08:28.060Z,4.40
2023-05-18T08:10:55.156Z,4.00
2023-05-18T08:13:22.418Z,4.40
2023-05-18T08:15:59.243Z,4.90
2023-05-18T08:18:36.491Z,4.50
2023-05-18T08:21:04.478Z,4.70
2023-05-18T08:23:31.486Z,4.80
2023-05-18T08:26:00.343Z,5.00
2023-05-18T08:28:27.755Z,4.90
2023-05-18T08:30:54.797Z,4.90
2023-05-18T08:33:21.820Z,4.80
2023-05-18T08:35:49.277Z,4.70
2023-05-18T08:38:17.645Z,5.00
2023-05-18T08:41:08.906Z,4.80
2023-05-18T08:43:38.548Z,6.10
2023-05-18T08:46:07.589Z,5.90
2023-05-18T08:48:34.809Z,5.40
2023-05-18T08:51:03.024Z,4.70
2023-05-18T08:53:31.522Z,4.50
2023-05-18T08:55:59.512Z,4.60
2023-05-18T08:58:34.417Z,5.00
2023-05-18T09:01:01.994Z,5.40
2023-05-18T09:03:29.432Z,5.20
2023-05-18T09:05:56.462Z,6.00
2023-05-18T09:08:23.951Z,6.50
2023-05-18T09:10:50.940Z,6.20
2023-05-18T09:13:20.838Z,6.40
2023-05-18T09:15:49.498Z,6.00
2023-05-18T09:18:16.544Z,6.20
2023-05-18T09:20:43.815Z,6.90
2023-05-18T09:23:12.292Z,11.00
2023-05-18T09:25:44.863Z,10.20
2023-05-18T09:28:15.152Z,11.10
2023-05-18T09:30:43.128Z,14.50
2023-05-18T09:33:21.990Z,7.70
2023-05-18T09:35:51.037Z,10.90
2023-05-18T09:38:22.240Z,7.10
2023-05-18T09:43:18.728Z,9.30
2023-05-18T09:45:47.102Z,6.50
2023-05-18T09:48:16.982Z,5.90
2023-05-18T09:50:47.612Z,6.20
2023-05-18T09:53:14.928Z,5.60
2023-05-18T09:55:46.797Z,4.80
2023-05-18T09:58:13.940Z,5.80
2023-05-18T10:00:44.974Z,5.80
2023-05-18T10:03:22.003Z,5.80
2023-05-18T10:05:49.671Z,11.90
2023-05-18T10:08:17.724Z,6.60
2023-05-18T10:10:46.406Z,5.20
2023-05-18T10:13:19.655Z,4.90
2023-05-18T10:15:55.026Z,5.20
2023-05-18T10:18:27.005Z,4.90
2023-05-18T10:20:57.202Z,5.50
2023-05-18T10:23:26.877Z,6.20
2023-05-18T10:25:54.111Z,5.20
2023-05-18T10:28:30.351Z,5.40
2023-05-18T10:30:58.726Z,6.50
2023-05-18T10:33:30.096Z,5.70
2023-05-18T10:35:57.875Z,5.30
2023-05-18T10:38:28.510Z,5.70
2023-05-18T10:40:56.678Z,5.30
2023-05-18T10:43:27.744Z,5.40
2023-05-18T10:45:59.893Z,5.50
2023-05-18T10:48:27.986Z,5.20
2023-05-18T10:50:56.837Z,5.50
2023-05-18T10:53:27.078Z,5.80
2023-05-18T10:55:54.779Z,5.10
2023-05-18T10:58:23.066Z,4.80
2023-05-18T11:00:54.061Z,5.70
2023-05-18T11:03:23.636Z,6.10
2023-05-18T11:05:52.438Z,5.90
2023-05-18T11:08:29.204Z,6.00
2023-05-18T11:11:02.138Z,5.90
2023-05-18T11:13:32.620Z,6.10
2023-05-18T11:16:01.872Z,6.20
2023-05-18T11:18:38.572Z,5.90
2023-05-18T11:21:28.944Z,6.00
2023-05-18T11:24:18.318Z,5.50
2023-05-18T11:26:56.164Z,5.60
2023-05-18T11:29:37.448Z,5.80
2023-05-18T11:32:05.200Z,5.80
2023-05-18T11:34:46.640Z,5.70
2023-05-18T11:37:38.838Z,6.30
2023-05-18T11:40:11.785Z,6.20
2023-05-18T11:42:40.131Z,6.20
2023-05-18T11:45:11.469Z,5.80
2023-05-18T11:47:42.015Z,6.20
2023-05-18T11:50:11.984Z,6.20
2023-05-18T11:52:49.338Z,6.00
2023-05-18T11:55:17.319Z,6.20
2023-05-18T11:57:47.298Z,6.30
2023-05-18T12:00:16.337Z,6.60
2023-05-18T12:02:45.584Z,6.00
2023-05-18T12:05:13.152Z,6.50
2023-05-18T12:07:40.663Z,6.20
2023-05-18T12:10:10.019Z,6.00
2023-05-18T12:12:37.108Z,6.10
2023-05-18T12:15:05.663Z,6.10
2023-05-18T12:17:40.856Z,6.20
2023-05-18T12:20:12.606Z,6.50
2023-05-18T12:22:43.716Z,5.80
2023-05-18T12:25:11.037Z,6.10
2023-05-18T12:27:40.132Z,6.70
2023-05-18T12:30:14.001Z,5.90
2023-05-18T12:32:48.669Z,6.10
2023-05-18T12:35:15.707Z,6.00
2023-05-18T12:37:46.486Z,6.00
2023-05-18T12:40:14.788Z,6.20
2023-05-18T12:43:11.420Z,5.90
2023-05-18T12:45:38.438Z,5.80
2023-05-18T12:48:06.327Z,5.80
2023-05-18T12:50:33.484Z,5.80
2023-05-18T12:53:02.155Z,6.10
2023-05-18T12:55:31.357Z,5.80
2023-05-18T12:58:17.013Z,6.00
2023-05-18T13:00:45.357Z,5.90
2023-05-18T13:03:22.503Z,5.90
2023-05-18T13:06:04.779Z,6.30
2023-05-18T13:08:32.342Z,5.80
2023-05-18T13:11:14.206Z,5.70
2023-05-18T13:13:59.006Z,5.40
2023-05-18T13:16:26.909Z,6.10
2023-05-18T13:19:02.189Z,6.50
2023-05-18T13:21:29.437Z,6.40
2023-05-18T13:23:56.475Z,5.80
2023-05-18T13:26:24.181Z,5.90
2023-05-18T13:28:52.607Z,5.30
2023-05-18T13:31:20.236Z,5.70
2023-05-18T13:33:47.551Z,6.10
2023-05-18T13:36:14.761Z,6.10
2023-05-18T13:38:43.182Z,5.90
2023-05-18T13:41:12.732Z,5.20
2023-05-18T13:43:39.970Z,5.70
2023-05-18T13:46:07.053Z,6.10
2023-05-18T13:48:34.283Z,5.90
2023-05-18T13:51:04.434Z,5.70
2023-05-18T13:53:31.689Z,6.10
2023-05-18T13:55:58.716Z,5.30
2023-05-18T13:58:25.828Z,5.90
2023-05-18T14:00:54.709Z,5.30
2023-05-18T14:03:23.174Z,6.00
2023-05-18T14:05:50.421Z,5.70
2023-05-18T14:08:17.437Z,5.50
2023-05-18T14:10:44.601Z,5.80
2023-05-18T14:13:11.610Z,5.70
2023-05-18T14:15:38.617Z,5.70
2023-05-18T14:18:05.852Z,5.80
2023-05-18T14:20:34.199Z,5.50
2023-05-18T14:23:04.386Z,6.00
2023-05-18T14:25:32.056Z,5.70
2023-05-18T14:27:59.071Z,5.80
2023-05-18T14:30:26.770Z,6.50
2023-05-18T14:32:53.983Z,5.70
2023-05-18T14:35:22.155Z,5.60
2023-05-18T14:37:49.176Z,6.10
2023-05-18T14:40:16.209Z,6.30
2023-05-18T14:42:43.727Z,6.50
2023-05-18T14:45:10.982Z,6.50
2023-05-18T14:47:38.032Z,6.50
2023-05-18T14:50:06.431Z,6.60
2023-05-18T14:52:33.406Z,6.60
2023-05-18T14:55:00.439Z,7.30
2023-05-18T14:57:27.517Z,7.80
2023-05-18T14:59:54.656Z,6.70
2023-05-18T15:02:21.674Z,6.40
2023-05-18T15:04:48.741Z,6.70
2023-05-18T15:07:22.911Z,6.30
2023-05-18T15:09:49.985Z,7.00
2023-05-18T15:12:19.877Z,6.50
2023-05-18T15:14:46.913Z,5.80
2023-05-18T15:17:15.201Z,6.10
2023-05-18T15:19:42.293Z,6.50
2023-05-18T15:22:09.570Z,6.20
2023-05-18T15:24:38.078Z,6.40
2023-05-18T15:27:05.322Z,6.40
2023-05-18T15:29:32.364Z,6.50
2023-05-18T15:31:59.446Z,5.90
2023-05-18T15:34:26.498Z,6.10
2023-05-18T15:36:53.941Z,6.10
2023-05-18T15:39:21.083Z,6.60
2023-05-18T15:41:48.150Z,6.50
2023-05-18T15:44:15.250Z,6.40
2023-05-18T15:46:42.249Z,6.10
2023-05-18T15:49:09.320Z,5.80
2023-05-18T15:51:36.403Z,6.30
2023-05-18T15:54:03.502Z,6.60
2023-05-18T15:56:30.565Z,6.40
2023-05-18T15:58:57.613Z,6.80
2023-05-18T16:01:24.789Z,6.10
2023-05-18T16:03:51.902Z,6.30
2023-05-18T16:06:18.977Z,6.50
2023-05-18T16:08:46.354Z,6.50
2023-05-18T16:11:13.364Z,6.60
2023-05-18T16:13:40.442Z,6.30
2023-05-18T16:16:10.372Z,6.70
2023-05-18T16:18:37.598Z,6.50
2023-05-18T16:21:04.692Z,6.50
2023-05-18T16:23:31.735Z,7.30
2023-05-18T16:26:00.004Z,6.10
2023-05-18T16:28:27.098Z,6.70
2023-05-18T16:30:54.232Z,7.30
2023-05-18T16:33:21.190Z,6.80
2023-05-18T16:35:48.415Z,6.70
2023-05-18T16:38:15.542Z,6.70
2023-05-18T16:40:42.997Z,6.20
2023-05-18T16:43:10.260Z,6.90
2023-05-18T16:45:37.325Z,7.70
2023-05-18T16:48:04.460Z,7.70
2023-05-18T16:50:32.197Z,7.80
2023-05-18T16:52:59.447Z,7.90
2023-05-18T16:55:26.888Z,8.00
2023-05-18T16:57:56.174Z,7.90
2023-05-18T17:00:23.642Z,7.70
2023-05-18T17:02:52.694Z,8.30
2023-05-18T17:05:23.169Z,8.20
2023-05-18T17:07:51.064Z,7.50
2023-05-18T17:10:18.184Z,8.20
2023-05-18T17:12:45.185Z,8.00
2023-05-18T17:15:16.505Z,8.50
2023-05-18T17:17:43.992Z,8.00
2023-05-18T17:20:11.336Z,7.60
2023-05-18T17:22:38.518Z,8.20
2023-05-18T17:25:06.131Z,8.00
2023-05-18T17:27:33.133Z,8.00
2023-05-18T17:30:00.232Z,8.70
2023-05-18T17:32:27.222Z,8.40
2023-05-18T17:34:54.260Z,9.00
2023-05-18T17:37:21.432Z,8.90
2023-05-18T17:39:48.436Z,8.80
2023-05-18T17:42:16.232Z,9.00
2023-05-18T17:44:44.207Z,8.20
2023-05-18T17:47:13.605Z,8.80
2023-05-18T17:49:40.793Z,8.30
2023-05-18T17:52:07.862Z,9.50
2023-05-18T17:54:34.864Z,8.90
2023-05-18T17:57:01.986Z,8.60
2023-05-18T17:59:28.994Z,8.60
2023-05-18T18:01:55.993Z,9.10
2023-05-18T18:04:23.374Z,8.80
2023-05-18T18:06:54.395Z,9.00
2023-05-18T18:09:22.453Z,8.70
2023-05-18T18:11:49.568Z,9.50
2023-05-18T18:14:17.562Z,10.10
2023-05-18T18:16:44.648Z,8.60
2023-05-18T18:19:12.217Z,10.10
2023-05-18T18:21:39.342Z,9.50
2023-05-18T18:24:06.663Z,9.30
2023-05-18T18:26:38.884Z,9.50
2023-05-18T18:29:06.238Z,8.90
2023-05-18T18:31:33.439Z,9.00
2023-05-18T18:34:06.568Z,10.00
2023-05-18T18:36:33.794Z,10.90
2023-05-18T18:39:00.826Z,10.30
2023-05-18T18:41:27.979Z,11.00
2023-05-18T18:43:57.244Z,10.90
2023-05-18T18:46:25.856Z,10.10
2023-05-18T18:48:52.979Z,11.70
2023-05-18T18:51:20.044Z,11.30
2023-05-18T18:53:47.573Z,11.70
2023-05-18T18:56:14.619Z,12.30
2023-05-18T18:58:42.057Z,12.30
2023-05-18T19:01:09.176Z,11.80
2023-05-18T19:03:36.282Z,11.60
2023-05-18T19:06:03.503Z,11.50
2023-05-18T19:08:33.546Z,11.50
2023-05-18T19:11:00.772Z,11.50
2023-05-18T19:13:27.994Z,11.40
2023-05-18T19:15:55.093Z,11.00
2023-05-18T19:18:22.299Z,12.10
2023-05-18T19:20:49.510Z,10.90
2023-05-18T19:23:16.514Z,11.30
2023-05-18T19:25:43.607Z,11.20
2023-05-18T19:28:10.698Z,10.80
2023-05-18T19:30:37.784Z,11.40
2023-05-18T19:33:04.852Z,11.80
2023-05-18T19:35:33.282Z,11.90
2023-05-18T19:38:02.566Z,12.00
2023-05-18T19:40:29.802Z,11.70
2023-05-18T19:42:59.855Z,11.80
2023-05-18T19:45:27.176Z,12.00
2023-05-18T19:47:54.334Z,11.20
2023-05-18T19:50:21.565Z,11.80
2023-05-18T19:52:49.723Z,11.90
2023-05-18T19:55:17.440Z,11.50
2023-05-18T19:57:44.617Z,11.40
2023-05-18T20:00:12.014Z,12.40
2023-05-18T20:02:41.877Z,12.80
2023-05-18T20:05:09.601Z,12.50
2023-05-18T20:07:36.639Z,13.00
2023-05-18T20:10:03.784Z,11.80
2023-05-18T20:12:32.329Z,13.00
2023-05-18T20:14:59.457Z,12.40
2023-05-18T20:17:26.627Z,12.00
2023-05-18T20:19:56.006Z,11.70
2023-05-18T20:22:23.106Z,12.10
2023-05-18T20:24:51.024Z,12.40
2023-05-18T20:27:20.870Z,13.10
2023-05-18T20:29:48.042Z,12.60
2023-05-18T20:32:15.317Z,13.50
2023-05-18T20:34:44.614Z,13.40
2023-05-18T20:37:14.297Z,12.70
2023-05-18T20:39:42.907Z,12.70
2023-05-18T20:42:12.882Z,11.90
2023-05-18T20:44:40.249Z,12.60
2023-05-18T20:47:07.411Z,12.60
2023-05-18T20:49:34.453Z,13.30
2023-05-18T20:52:01.513Z,12.80
2023-05-18T20:54:29.674Z,12.70
2023-05-18T20:56:56.971Z,12.80
2023-05-18T20:59:24.615Z,12.70
2023-05-18T21:01:51.685Z,13.50
2023-05-18T21:04:19.471Z,13.70
2023-05-18T21:06:46.950Z,13.30
2023-05-18T21:09:13.957Z,12.60
2023-05-18T21:11:41.478Z,14.10
2023-05-18T21:14:08.504Z,12.80
2023-05-18T21:16:37.255Z,12.80
2023-05-18T21:19:04.354Z,12.70
2023-05-18T21:21:31.928Z,11.90
2023-05-18T21:23:59.003Z,12.20
2023-05-18T21:26:26.685Z,12.40
2023-05-18T21:28:54.308Z,12.20
2023-05-18T21:31:21.390Z,12.30
2023-05-18T21:33:48.549Z,12.10
2023-05-18T21:36:15.840Z,12.70
2023-05-18T21:38:44.500Z,12.80
2023-05-18T21:41:11.537Z,11.70
2023-05-18T21:43:38.555Z,11.60
2023-05-18T21:46:07.770Z,11.80
2023-05-18T21:48:36.340Z,12.50
2023-05-18T21:51:04.516Z,11.90
2023-05-18T21:53:31.544Z,12.20
2023-05-18T21:55:58.618Z,12.60
2023-05-18T21:58:25.732Z,12.30
2023-05-18T22:00:52.895Z,12.60
2023-05-18T22:03:19.974Z,13.10
2023-05-18T22:05:47.420Z,12.20
2023-05-18T22:08:14.493Z,13.10
2023-05-18T22:10:42.312Z,12.70
2023-05-18T22:13:09.584Z,12.10
2023-05-18T22:15:37.484Z,13.00
2023-05-18T22:18:04.800Z,12.70
2023-05-18T22:20:32.584Z,12.70
2023-05-18T22:22:59.850Z,13.80
2023-05-18T22:25:26.938Z,12.60
2023-05-18T22:27:53.938Z,12.30
2023-05-18T22:30:21.126Z,11.90
2023-05-18T22:32:48.149Z,11.90
2023-05-18T22:35:15.370Z,11.20
2023-05-18T22:37:42.408Z,11.90
2023-05-18T22:40:10.043Z,11.50
2023-05-18T22:42:37.042Z,11.30
2023-05-18T22:45:04.310Z,12.20
2023-05-18T22:47:31.405Z,10.80
2023-05-18T22:49:58.563Z,11.90
2023-05-18T22:52:26.787Z,11.40
2023-05-18T22:54:53.823Z,11.60
2023-05-18T22:57:20.830Z,11.60
2023-05-18T22:59:47.868Z,11.50
2023-05-18T23:02:15.120Z,11.00
2023-05-18T23:04:42.284Z,11.30
2023-05-18T23:07:09.380Z,11.20
2023-05-18T23:09:38.617Z,9.90
2023-05-18T23:12:06.801Z,10.30
2023-05-18T23:14:33.967Z,10.20
2023-05-18T23:17:01.125Z,10.10
2023-05-18T23:19:29.142Z,10.50
2023-05-18T23:21:56.737Z,11.90
2023-05-18T23:24:23.745Z,10.20
2023-05-18T23:26:51.015Z,10.20
2023-05-18T23:29:18.051Z,11.00
2023-05-18T23:31:45.247Z,9.70
2023-05-18T23:34:12.590Z,10.00
2023-05-18T23:36:42.851Z,10.60
2023-05-18T23:39:10.356Z,10.10
2023-05-18T23:41:37.645Z,10.40
2023-05-18T23:44:05.059Z,10.20
2023-05-18T23:46:32.400Z,9.70
2023-05-18T23:49:01.776Z,11.00
2023-05-18T23:51:30.037Z,10.80
2023-05-18T23:53:57.073Z,10.10
2023-05-18T23:56:25.087Z,10.00
2023-05-18T23:58:52.380Z,10.50
